Time;durP1;ratioP1;P1;durP2;ratioP2;P2;SDS_P1;SDS_P2;PMS_P1;PMS_P2;Temp;Humidity;BMP_temperature;BMP_pressure;BME280_temperature;BME280_humidity;BME280_pressure;Samples;Min_cycle;Max_cycle;Signal;HPM_P1;HPM_P2
2023/05/19 00:00:46;;;;;;;15.50;7.07;;;;;;;;;;5078460;28;20075;-78
2023/05/19 00:03:12;;;;;;;16.83;7.35;;;;;;;;;;5080594;28;20529;-79
2023/05/19 00:05:44;;;;;;;15.73;7.35;;;;;;;;;;5065213;28;20048;-79
2023/05/19 00:08:10;;;;;;;19.23;7.70;;;;;;;;;;5102002;27;20383;-79
2023/05/19 00:10:36;;;;;;;15.00;8.00;;;;;;;;;;5079014;28;20530;-79
2023/05/19 00:13:02;;;;;;;16.70;8.27;;;;;;;;;;5062721;28;20045;-78
2023/05/19 00:15:29;;;;;;;16.55;7.90;;;;;;;;;;5062856;28;20051;-78
2023/05/19 00:17:55;;;;;;;19.35;8.68;;;;;;;;;;5063527;28;20089;-78
2023/05/19 00:20:21;;;;;;;18.35;7.75;;;;;;;;;;5067507;28;20105;-79
2023/05/19 00:22:48;;;;;;;19.73;8.57;;;;;;;;;;5079637;28;20162;-79
2023/05/19 00:25:14;;;;;;;19.65;8.77;;;;;;;;;;5082676;28;20089;-79
2023/05/19 00:27:40;;;;;;;25.60;9.20;;;;;;;;;;5069383;28;20040;-79
2023/05/19 00:30:08;;;;;;;17.05;8.77;;;;;;;;;;5070141;28;20048;-79
2023/05/19 00:32:34;;;;;;;22.27;8.35;;;;;;;;;;5085470;28;20093;-79
2023/05/19 00:35:00;;;;;;;18.67;9.07;;;;;;;;;;5065223;28;20402;-78
2023/05/19 00:37:26;;;;;;;17.67;7.90;;;;;;;;;;5068555;28;20125;-80
2023/05/19 00:39:52;;;;;;;21.73;8.65;;;;;;;;;;5063278;28;20443;-79
2023/05/19 00:42:19;;;;;;;18.05;8.57;;;;;;;;;;5066685;28;20594;-80
2023/05/19 00:44:45;;;;;;;23.40;8.77;;;;;;;;;;5066049;28;21111;-79
2023/05/19 00:47:11;;;;;;;16.30;8.95;;;;;;;;;;5068750;28;20160;-79
2023/05/19 00:49:37;;;;;;;19.35;8.27;;;;;;;;;;5078960;28;20044;-81
2023/05/19 00:52:05;;;;;;;19.60;8.88;;;;;;;;;;5087316;28;20436;-79
2023/05/19 00:54:32;;;;;;;14.95;5.53;;;;;;;;;;5106267;28;20451;-79
2023/05/19 00:56:58;;;;;;;21.55;9.45;;;;;;;;;;5071629;28;20122;-79
2023/05/19 00:59:24;;;;;;;18.05;9.23;;;;;;;;;;5064704;28;20051;-80
2023/05/19 01:01:50;;;;;;;21.83;9.80;;;;;;;;;;5059302;28;20112;-79
2023/05/19 01:04:18;;;;;;;25.45;9.82;;;;;;;;;;5069000;28;20072;-79
2023/05/19 01:06:46;;;;;;;17.33;8.50;;;;;;;;;;5059541;28;20109;-79
2023/05/19 01:09:12;;;;;;;27.33;10.07;;;;;;;;;;5084636;28;20103;-78
2023/05/19 01:11:38;;;;;;;26.95;10.05;;;;;;;;;;5078909;28;20044;-79
2023/05/19 01:14:04;;;;;;;20.70;9.07;;;;;;;;;;5065527;28;20044;-80
2023/05/19 01:16:32;;;;;;;23.73;10.20;;;;;;;;;;5079371;28;20578;-80
2023/05/19 01:19:18;;;;;;;21.00;8.80;;;;;;;;;;5062256;28;20120;-79
2023/05/19 01:21:44;;;;;;;20.08;9.27;;;;;;;;;;5073284;28;20048;-79
2023/05/19 01:24:22;;;;;;;19.75;9.48;;;;;;;;;;5080865;28;20040;-79
2023/05/19 01:26:48;;;;;;;;;;;;;;;;;;5078673;28;20062;-79
2023/05/19 01:29:14;;;;;;;29.15;10.80;;;;;;;;;;5060752;28;20375;-81
2023/05/19 01:31:41;;;;;;;19.45;8.68;;;;;;;;;;5059875;28;20036;-80
2023/05/19 01:34:09;;;;;;;21.48;9.57;;;;;;;;;;5060765;28;20075;-79
2023/05/19 01:36:35;;;;;;;20.85;9.48;;;;;;;;;;5078543;28;20105;-80
2023/05/19 01:39:02;;;;;;;21.08;9.38;;;;;;;;;;5063465;28;20075;-78
2023/05/19 01:41:28;;;;;;;19.25;8.48;;;;;;;;;;5109391;27;20105;-79
2023/05/19 01:43:55;;;;;;;20.33;8.25;;;;;;;;;;5068345;28;20051;-78
2023/05/19 01:46:21;;;;;;;18.65;9.38;;;;;;;;;;5067557;28;20665;-79
2023/05/19 01:48:47;;;;;;;27.48;10.23;;;;;;;;;;5080315;28;20075;-79
2023/05/19 01:51:14;;;;;;;19.75;9.35;;;;;;;;;;5076942;28;20051;-80
2023/05/19 01:53:43;;;;;;;23.40;9.25;;;;;;;;;;5080244;28;20055;-79
2023/05/19 01:56:09;;;;;;;19.23;9.32;;;;;;;;;;5077120;28;20044;-79
2023/05/19 01:58:35;;;;;;;21.20;9.48;;;;;;;;;;5078072;28;20051;-78
2023/05/19 02:01:04;;;;;;;24.05;9.68;;;;;;;;;;5087927;28;20518;-79
2023/05/19 02:03:49;;;;;;;19.50;9.57;;;;;;;;;;5063788;28;20028;-79
2023/05/19 02:06:22;;;;;;;21.75;9.88;;;;;;;;;;5070105;28;20090;-80
2023/05/19 02:09:02;;;;;;;20.10;8.95;;;;;;;;;;5077117;28;20058;-80
2023/05/19 02:11:35;;;;;;;19.40;9.30;;;;;;;;;;5077338;28;20035;-80
2023/05/19 02:14:03;;;;;;;21.77;8.80;;;;;;;;;;5094000;27;20048;-80
2023/05/19 02:16:29;;;;;;;26.48;9.95;;;;;;;;;;5082595;28;20089;-80
2023/05/19 02:18:56;;;;;;;19.90;9.00;;;;;;;;;;5096348;27;20032;-80
2023/05/19 02:21:22;;;;;;;24.55;9.10;;;;;;;;;;5076872;28;20074;-79
2023/05/19 02:23:48;;;;;;;20.52;9.30;;;;;;;;;;5092165;27;20105;-79
2023/05/19 02:26:15;;;;;;;22.38;9.93;;;;;;;;;;5095420;27;20130;-79
2023/05/19 02:28:41;;;;;;;23.23;8.90;;;;;;;;;;5077883;28;20043;-79
2023/05/19 02:31:08;;;;;;;18.20;8.57;;;;;;;;;;5065260;28;20045;-79
2023/05/19 02:33:35;;;;;;;22.52;9.93;;;;;;;;;;5081041;28;20036;-79
2023/05/19 02:36:01;;;;;;;22.73;9.45;;;;;;;;;;5065802;28;20415;-79
2023/05/19 02:38:27;;;;;;;17.85;9.45;;;;;;;;;;5077787;28;20051;-78
2023/05/19 02:40:53;;;;;;;22.45;8.73;;;;;;;;;;5064010;28;20044;-79
2023/05/19 02:43:19;;;;;;;20.92;8.70;;;;;;;;;;5063835;28;20047;-79
2023/05/19 02:45:45;;;;;;;19.70;8.80;;;;;;;;;;5080129;28;20385;-78
2023/05/19 02:48:11;;;;;;;17.42;8.60;;;;;;;;;;5079042;28;20048;-78
2023/05/19 02:50:38;;;;;;;21.13;8.68;;;;;;;;;;5095834;27;20048;-79
2023/05/19 02:53:04;;;;;;;22.05;9.77;;;;;;;;;;5082533;28;20059;-79
2023/05/19 02:55:30;;;;;;;27.02;10.25;;;;;;;;;;5060548;28;20458;-79
2023/05/19 02:57:56;;;;;;;21.92;10.00;;;;;;;;;;5065202;28;20044;-78
2023/05/19 03:00:22;;;;;;;26.50;10.00;;;;;;;;;;5077075;28;20144;-79
2023/05/19 03:02:48;;;;;;;26.10;10.48;;;;;;;;;;5060150;28;20040;-79
2023/05/19 03:05:14;;;;;;;31.48;11.05;;;;;;;;;;5063290;28;20051;-79
2023/05/19 03:07:40;;;;;;;28.40;11.07;;;;;;;;;;5074255;28;20427;-79
2023/05/19 03:10:07;;;;;;;31.35;11.07;;;;;;;;;;5067792;28;20454;-79
2023/05/19 03:12:33;;;;;;;24.40;9.65;;;;;;;;;;5061784;28;20601;-80
2023/05/19 03:14:59;;;;;;;24.60;10.05;;;;;;;;;;5083009;28;20089;-80
2023/05/19 03:17:27;;;;;;;22.10;9.93;;;;;;;;;;5061517;28;20039;-79
2023/05/19 03:19:53;;;;;;;21.30;10.30;;;;;;;;;;5059622;28;20040;-80
2023/05/19 03:22:20;;;;;;;26.30;9.98;;;;;;;;;;5066634;28;20056;-79
2023/05/19 03:24:48;;;;;;;20.00;9.18;;;;;;;;;;5063612;28;20079;-79
2023/05/19 03:27:15;;;;;;;22.95;9.07;;;;;;;;;;5064812;28;20044;-78
2023/05/19 03:29:41;;;;;;;26.77;9.95;;;;;;;;;;5078101;28;20043;-80
2023/05/19 03:32:07;;;;;;;23.33;9.43;;;;;;;;;;5064587;28;20032;-80
2023/05/19 03:34:34;;;;;;;21.08;9.20;;;;;;;;;;5077740;28;20043;-79
2023/05/19 03:37:00;;;;;;;20.88;8.90;;;;;;;;;;5097658;28;20511;-79
2023/05/19 03:39:26;;;;;;;18.10;9.02;;;;;;;;;;5059468;28;20492;-79
2023/05/19 03:41:52;;;;;;;26.83;10.02;;;;;;;;;;5061840;28;20129;-79
2023/05/19 03:44:18;;;;;;;21.52;10.40;;;;;;;;;;5068722;28;20052;-78
2023/05/19 03:46:44;;;;;;;30.55;10.88;;;;;;;;;;5061162;28;20055;-79
2023/05/19 03:49:10;;;;;;;26.45;10.50;;;;;;;;;;5045354;28;20302;-80
2023/05/19 03:51:36;;;;;;;30.38;10.13;;;;;;;;;;5078673;28;20042;-78
2023/05/19 03:54:03;;;;;;;33.72;11.23;;;;;;;;;;5064610;28;20052;-79
2023/05/19 03:56:29;;;;;;;32.83;11.88;;;;;;;;;;5058108;28;20048;-78
2023/05/19 03:58:55;;;;;;;29.58;11.38;;;;;;;;;;5063165;28;20392;-78
2023/05/19 04:01:21;;;;;;;36.58;12.10;;;;;;;;;;5073669;28;20484;-79
2023/05/19 04:03:47;;;;;;;167.93;20.15;;;;;;;;;;5062926;28;20048;-79
2023/05/19 04:06:13;;;;;;;23.10;10.05;;;;;;;;;;5075582;28;20043;-80
2023/05/19 04:08:40;;;;;;;41.17;12.75;;;;;;;;;;5075381;28;20083;-77
2023/05/19 04:11:06;;;;;;;26.73;11.02;;;;;;;;;;5072710;28;20036;-79
2023/05/19 04:13:35;;;;;;;32.15;11.73;;;;;;;;;;5073352;28;20036;-79
2023/05/19 04:16:01;;;;;;;34.70;12.27;;;;;;;;;;5074362;28;20043;-80
2023/05/19 04:18:27;;;;;;;46.05;13.98;;;;;;;;;;5076133;28;20040;-79
2023/05/19 04:20:53;;;;;;;104.90;15.27;;;;;;;;;;5079887;28;20597;-80
2023/05/19 04:23:19;;;;;;;50.03;14.07;;;;;;;;;;5059533;28;20047;-80
2023/05/19 04:25:47;;;;;;;33.88;13.40;;;;;;;;;;5058988;28;20157;-79
2023/05/19 04:28:13;;;;;;;32.37;12.10;;;;;;;;;;5062561;28;20536;-81
2023/05/19 04:30:41;;;;;;;89.80;15.90;;;;;;;;;;5056919;28;20039;-80
2023/05/19 04:33:08;;;;;;;31.10;11.88;;;;;;;;;;5083469;28;20706;-80
2023/05/19 04:35:34;;;;;;;33.85;13.15;;;;;;;;;;5063374;28;20066;-79
2023/05/19 04:38:00;;;;;;;18.60;9.80;;;;;;;;;;5065676;28;20036;-79
2023/05/19 04:40:26;;;;;;;17.92;10.20;;;;;;;;;;5080116;28;20047;-79
2023/05/19 04:42:52;;;;;;;20.05;9.50;;;;;;;;;;5066994;28;20181;-79
2023/05/19 04:45:19;;;;;;;17.80;10.00;;;;;;;;;;5062742;28;20536;-80
2023/05/19 04:47:48;;;;;;;16.83;9.20;;;;;;;;;;5065621;28;20052;-80
2023/05/19 04:50:15;;;;;;;;;;;;;;;;;;5061473;28;20096;-80
2023/05/19 04:52:44;;;;;;;18.08;9.80;;;;;;;;;;5086993;28;19920;-79
2023/05/19 04:55:11;;;;;;;19.33;10.48;;;;;;;;;;5081123;28;20055;-80
2023/05/19 04:57:39;;;;;;;19.13;9.73;;;;;;;;;;5074538;28;20142;-80
2023/05/19 05:00:07;;;;;;;22.50;10.60;;;;;;;;;;5067875;28;20043;-78
2023/05/19 05:02:33;;;;;;;18.67;9.63;;;;;;;;;;5078808;28;20044;-79
2023/05/19 05:04:59;;;;;;;22.25;10.48;;;;;;;;;;5068297;28;20047;-80
2023/05/19 05:07:25;;;;;;;23.23;11.45;;;;;;;;;;5068929;28;20036;-79
2023/05/19 05:09:51;;;;;;;20.20;9.48;;;;;;;;;;5065290;28;20174;-80
2023/05/19 05:12:18;;;;;;;23.02;10.50;;;;;;;;;;5076671;28;20159;-79
2023/05/19 05:14:44;;;;;;;21.25;10.77;;;;;;;;;;5072242;28;20059;-79
2023/05/19 05:17:12;;;;;;;26.80;10.35;;;;;;;;;;5076673;28;20044;-79
2023/05/19 05:19:38;;;;;;;23.00;11.38;;;;;;;;;;5079457;28;20055;-80
2023/05/19 05:22:05;;;;;;;26.00;10.80;;;;;;;;;;5068220;28;20574;-79
2023/05/19 05:24:31;;;;;;;22.05;10.45;;;;;;;;;;5083679;28;20081;-79
2023/05/19 05:27:00;;;;;;;16.55;10.10;;;;;;;;;;5080714;28;20396;-80
2023/05/19 05:29:26;;;;;;;25.58;10.25;;;;;;;;;;5076547;28;20102;-79
2023/05/19 05:31:52;;;;;;;20.75;10.45;;;;;;;;;;5077086;28;20401;-79
2023/05/19 05:34:18;;;;;;;23.73;10.45;;;;;;;;;;5066245;28;20043;-79
2023/05/19 05:36:44;;;;;;;21.55;10.73;;;;;;;;;;5079431;28;20040;-79
2023/05/19 05:39:10;;;;;;;20.80;10.15;;;;;;;;;;5063486;28;20097;-79
2023/05/19 05:41:36;;;;;;;20.35;11.07;;;;;;;;;;5044411;28;20046;-79
2023/05/19 05:44:03;;;;;;;18.83;11.15;;;;;;;;;;5062792;28;20591;-79
2023/05/19 05:46:29;;;;;;;18.55;11.25;;;;;;;;;;5060329;28;20513;-79
2023/05/19 05:48:55;;;;;;;22.20;11.07;;;;;;;;;;5090743;27;20542;-78
2023/05/19 05:51:22;;;;;;;20.05;10.77;;;;;;;;;;5079736;28;20047;-80
2023/05/19 05:53:52;;;;;;;19.23;10.13;;;;;;;;;;5077216;28;20052;-80
2023/05/19 05:56:18;;;;;;;23.85;10.07;;;;;;;;;;5067578;28;20089;-80
2023/05/19 05:58:44;;;;;;;17.42;9.88;;;;;;;;;;5084416;28;20059;-79
2023/05/19 06:01:10;;;;;;;15.60;8.82;;;;;;;;;;5061527;28;20052;-80
2023/05/19 06:03:37;;;;;;;17.08;9.38;;;;;;;;;;5077607;28;20134;-80
2023/05/19 06:06:03;;;;;;;17.60;8.70;;;;;;;;;;5106364;27;20036;-80
2023/05/19 06:08:29;;;;;;;18.52;8.82;;;;;;;;;;5078419;28;20039;-80
2023/05/19 06:10:57;;;;;;;19.40;8.55;;;;;;;;;;5062997;28;20041;-78
2023/05/19 06:13:24;;;;;;;16.67;8.88;;;;;;;;;;5063000;28;20045;-78
2023/05/19 06:15:50;;;;;;;15.82;8.57;;;;;;;;;;5090759;28;20115;-78
2023/05/19 06:18:16;;;;;;;17.55;8.60;;;;;;;;;;5072529;28;20055;-77
2023/05/19 06:20:42;;;;;;;12.77;7.18;;;;;;;;;;5097449;27;20048;-77
2023/05/19 06:23:08;;;;;;;12.88;6.20;;;;;;;;;;5060292;28;20570;-77
2023/05/19 06:25:34;;;;;;;15.77;6.93;;;;;;;;;;5077284;28;20040;-77
2023/05/19 06:28:00;;;;;;;8.95;5.47;;;;;;;;;;5064766;28;20086;-79
2023/05/19 06:30:26;;;;;;;10.38;5.47;;;;;;;;;;5085357;28;20079;-78
2023/05/19 06:32:52;;;;;;;12.40;4.97;;;;;;;;;;5062592;28;20047;-77
2023/05/19 06:35:18;;;;;;;11.20;4.68;;;;;;;;;;5074621;28;20047;-79
2023/05/19 06:37:44;;;;;;;9.57;4.40;;;;;;;;;;5060991;28;20454;-78
2023/05/19 06:40:11;;;;;;;12.85;5.03;;;;;;;;;;5086330;28;20044;-78
2023/05/19 06:42:37;;;;;;;13.35;5.07;;;;;;;;;;5098124;27;20040;-79
2023/05/19 06:45:03;;;;;;;11.30;4.60;;;;;;;;;;5078627;28;20055;-78
2023/05/19 06:47:29;;;;;;;10.50;4.15;;;;;;;;;;5078201;28;20554;-78
2023/05/19 06:49:55;;;;;;;11.63;4.80;;;;;;;;;;5073514;28;20131;-77
2023/05/19 06:52:21;;;;;;;12.48;4.70;;;;;;;;;;5072904;28;20062;-77
2023/05/19 06:54:48;;;;;;;11.13;4.97;;;;;;;;;;5059189;28;20044;-79
2023/05/19 06:57:14;;;;;;;13.35;5.15;;;;;;;;;;5070852;28;20051;-78
2023/05/19 06:59:42;;;;;;;12.38;4.85;;;;;;;;;;5061109;28;20048;-78
2023/05/19 07:02:08;;;;;;;10.35;4.40;;;;;;;;;;5080311;28;20460;-78
2023/05/19 07:04:34;;;;;;;11.65;4.63;;;;;;;;;;5074706;28;20044;-78
2023/05/19 07:07:00;;;;;;;11.07;4.55;;;;;;;;;;5071679;28;20045;-79
2023/05/19 07:09:26;;;;;;;12.98;4.68;;;;;;;;;;5082165;28;20425;-79
2023/05/19 07:11:52;;;;;;;13.60;4.22;;;;;;;;;;5072327;28;20044;-78
2023/05/19 07:14:19;;;;;;;10.80;4.15;;;;;;;;;;5078322;28;20077;-79
2023/05/19 07:16:45;;;;;;;11.02;5.10;;;;;;;;;;5081191;27;21118;-79
2023/05/19 07:19:11;;;;;;;11.43;4.20;;;;;;;;;;5083010;28;20040;-79
2023/05/19 07:21:37;;;;;;;12.23;3.95;;;;;;;;;;5056886;28;20047;-78
2023/05/19 07:24:04;;;;;;;15.95;4.53;;;;;;;;;;5080702;28;20044;-78
2023/05/19 07:26:30;;;;;;;11.85;4.30;;;;;;;;;;5076390;28;20033;-77
2023/05/19 07:28:56;;;;;;;11.68;4.28;;;;;;;;;;5077321;28;20044;-78
2023/05/19 07:31:22;;;;;;;11.48;3.97;;;;;;;;;;5087105;28;20128;-78
2023/05/19 07:33:48;;;;;;;10.68;3.80;;;;;;;;;;5074782;28;20505;-78
2023/05/19 07:36:14;;;;;;;9.73;3.70;;;;;;;;;;5083763;28;20035;-74
2023/05/19 07:38:40;;;;;;;9.88;3.90;;;;;;;;;;5059429;28;20035;-75
2023/05/19 07:41:06;;;;;;;10.65;3.75;;;;;;;;;;5082395;28;20070;-77
2023/05/19 07:43:35;;;;;;;11.55;3.55;;;;;;;;;;5076172;28;20421;-77
2023/05/19 07:46:01;;;;;;;10.50;3.38;;;;;;;;;;5065613;28;20527;-76
2023/05/19 07:48:28;;;;;;;13.13;3.63;;;;;;;;;;5083505;28;20043;-76
2023/05/19 07:50:54;;;;;;;9.80;3.40;;;;;;;;;;5057411;28;21496;-77
2023/05/19 07:53:21;;;;;;;9.35;3.63;;;;;;;;;;5067285;28;20043;-77
2023/05/19 07:55:49;;;;;;;9.15;3.10;;;;;;;;;;5065147;28;20628;-78
2023/05/19 07:58:15;;;;;;;9.70;2.63;;;;;;;;;;5100513;28;20082;-79
2023/05/19 08:00:44;;;;;;;7.00;2.53;;;;;;;;;;5052051;28;20048;-78
2023/05/19 08:03:10;;;;;;;6.07;2.55;;;;;;;;;;5060305;28;20071;-77
2023/05/19 08:05:37;;;;;;;10.48;2.97;;;;;;;;;;5063774;28;20043;-77
2023/05/19 08:08:03;;;;;;;9.98;2.50;;;;;;;;;;5077387;28;20537;-77
2023/05/19 08:10:29;;;;;;;7.78;2.40;;;;;;;;;;5076044;28;20040;-77
2023/05/19 08:12:55;;;;;;;6.55;2.33;;;;;;;;;;5072243;28;20047;-78
2023/05/19 08:15:21;;;;;;;6.80;2.10;;;;;;;;;;5061035;28;20040;-76
2023/05/19 08:17:47;;;;;;;7.03;2.47;;;;;;;;;;5060333;28;20054;-78
2023/05/19 08:20:15;;;;;;;8.68;2.63;;;;;;;;;;5061290;28;20052;-78
2023/05/19 08:22:41;;;;;;;8.27;2.40;;;;;;;;;;5078214;28;20496;-79
2023/05/19 08:25:08;;;;;;;6.57;2.65;;;;;;;;;;5083920;28;20752;-79
2023/05/19 08:27:34;;;;;;;7.95;2.72;;;;;;;;;;5078403;28;20094;-77
2023/05/19 08:30:00;;;;;;;7.50;2.30;;;;;;;;;;5058988;28;20131;-78
2023/05/19 08:32:26;;;;;;;9.45;2.65;;;;;;;;;;5080103;28;20032;-79
2023/05/19 08:34:52;;;;;;;8.00;2.50;;;;;;;;;;5073123;28;20033;-80
2023/05/19 08:37:18;;;;;;;7.72;2.70;;;;;;;;;;5066028;28;20051;-79
2023/05/19 08:39:44;;;;;;;9.57;2.22;;;;;;;;;;5077147;28;20056;-78
2023/05/19 08:42:11;;;;;;;10.63;2.85;;;;;;;;;;5082041;28;20083;-79
2023/05/19 08:44:38;;;;;;;10.32;2.63;;;;;;;;;;5083122;28;20505;-79
2023/05/19 08:47:08;;;;;;;7.53;2.50;;;;;;;;;;5081991;28;20055;-79
2023/05/19 08:49:36;;;;;;;5.47;2.35;;;;;;;;;;5079025;28;20040;-79
2023/05/19 08:52:18;;;;;;;8.98;2.67;;;;;;;;;;5054665;28;20039;-79
2023/05/19 08:54:51;;;;;;;6.18;2.50;;;;;;;;;;5109022;27;20113;-77
2023/05/19 08:57:18;;;;;;;8.07;2.60;;;;;;;;;;5085353;28;20043;-76
2023/05/19 08:59:44;;;;;;;7.18;2.60;;;;;;;;;;5085662;28;20079;-76
2023/05/19 09:02:11;;;;;;;6.00;2.25;;;;;;;;;;5089413;28;20044;-75
2023/05/19 09:04:38;;;;;;;8.73;2.80;;;;;;;;;;5081487;28;20060;-77
2023/05/19 09:07:04;;;;;;;7.10;2.42;;;;;;;;;;5082911;28;20035;-78
2023/05/19 09:09:30;;;;;;;5.80;2.35;;;;;;;;;;5075227;28;20483;-76
2023/05/19 09:11:56;;;;;;;5.97;2.15;;;;;;;;;;5076770;28;20105;-76
2023/05/19 09:14:22;;;;;;;6.32;2.40;;;;;;;;;;5069570;28;20388;-75
2023/05/19 09:16:51;;;;;;;9.20;2.30;;;;;;;;;;5093451;27;20127;-76
2023/05/19 09:19:17;;;;;;;6.90;2.33;;;;;;;;;;5079156;28;20062;-77
2023/05/19 09:21:44;;;;;;;12.57;2.42;;;;;;;;;;5077465;28;20062;-76
2023/05/19 09:24:10;;;;;;;7.28;2.63;;;;;;;;;;5060461;28;20039;-76
2023/05/19 09:26:37;;;;;;;5.88;2.10;;;;;;;;;;5076901;28;20136;-76
2023/05/19 09:29:13;;;;;;;6.25;2.20;;;;;;;;;;5060233;28;20047;-77
2023/05/19 09:31:52;;;;;;;6.88;2.40;;;;;;;;;;5089882;28;20469;-78
2023/05/19 09:34:27;;;;;;;7.45;2.28;;;;;;;;;;5040555;28;20040;-76
2023/05/19 09:36:53;;;;;;;6.68;2.25;;;;;;;;;;5061409;28;20124;-80
2023/05/19 09:39:20;;;;;;;6.07;2.30;;;;;;;;;;5058107;28;20048;-79
2023/05/19 09:41:47;;;;;;;5.13;1.95;;;;;;;;;;5081158;28;20127;-80
2023/05/19 09:44:13;;;;;;;9.48;2.63;;;;;;;;;;5042881;28;20101;-78
2023/05/19 09:46:47;;;;;;;9.52;2.28;;;;;;;;;;5075831;28;20114;-79
2023/05/19 09:49:13;;;;;;;5.75;2.20;;;;;;;;;;5077866;28;20500;-78
2023/05/19 09:51:40;;;;;;;6.25;2.30;;;;;;;;;;5075381;28;20047;-78
2023/05/19 09:54:08;;;;;;;8.43;2.50;;;;;;;;;;5062659;28;20127;-78
2023/05/19 09:56:35;;;;;;;7.57;2.28;;;;;;;;;;5075269;28;20076;-79
2023/05/19 09:59:03;;;;;;;9.82;2.30;;;;;;;;;;5061317;28;20040;-77
2023/05/19 10:01:30;;;;;;;8.15;2.03;;;;;;;;;;5055827;28;20036;-78
2023/05/19 10:03:56;;;;;;;9.57;2.20;;;;;;;;;;5065175;28;20522;-79
2023/05/19 10:06:22;;;;;;;7.13;2.78;;;;;;;;;;5075353;28;20044;-77
2023/05/19 10:08:49;;;;;;;6.88;2.10;;;;;;;;;;5095365;28;20052;-76
2023/05/19 10:11:16;;;;;;;8.55;2.47;;;;;;;;;;5079704;28;20496;-78
2023/05/19 10:13:45;;;;;;;7.28;2.40;;;;;;;;;;5057441;28;20421;-77
2023/05/19 10:16:11;;;;;;;6.78;2.40;;;;;;;;;;5090781;27;20054;-76
2023/05/19 10:18:37;;;;;;;6.57;2.40;;;;;;;;;;5076806;28;20067;-78
2023/05/19 10:21:04;;;;;;;9.45;2.83;;;;;;;;;;5077861;28;20126;-78
2023/05/19 10:23:30;;;;;;;7.68;2.28;;;;;;;;;;5058588;28;20085;-78
2023/05/19 10:25:59;;;;;;;7.18;2.45;;;;;;;;;;5115198;27;20499;-82
2023/05/19 10:28:33;;;;;;;7.18;2.53;;;;;;;;;;5071050;28;20046;-79
2023/05/19 10:31:01;;;;;;;7.72;2.83;;;;;;;;;;5055242;28;20448;-78
2023/05/19 10:33:43;;;;;;;9.43;2.45;;;;;;;;;;5061642;28;20074;-79
2023/05/19 10:36:29;;;;;;;11.20;2.97;;;;;;;;;;5058228;28;20126;-77
2023/05/19 10:39:02;;;;;;;15.80;2.45;;;;;;;;;;5093477;27;20077;-77
2023/05/19 10:41:34;;;;;;;6.25;2.40;;;;;;;;;;5075714;28;20040;-77
2023/05/19 10:44:20;;;;;;;6.75;2.60;;;;;;;;;;5071859;28;20066;-77
2023/05/19 10:46:46;;;;;;;7.72;2.78;;;;;;;;;;5085050;28;20376;-77
2023/05/19 10:49:19;;;;;;;8.93;2.63;;;;;;;;;;5076522;28;20484;-77
2023/05/19 10:51:46;;;;;;;8.48;2.60;;;;;;;;;;5062587;28;20043;-77
2023/05/19 10:54:14;;;;;;;9.32;2.72;;;;;;;;;;5081242;28;20048;-77
2023/05/19 10:56:42;;;;;;;7.75;2.70;;;;;;;;;;5072570;28;20082;-76
2023/05/19 10:59:28;;;;;;;7.93;2.65;;;;;;;;;;5077078;28;20036;-77
2023/05/19 11:01:54;;;;;;;8.05;2.50;;;;;;;;;;5076819;28;20059;-79
2023/05/19 11:04:38;;;;;;;8.00;2.75;;;;;;;;;;5077269;28;20052;-77
2023/05/19 11:07:04;;;;;;;6.60;2.50;;;;;;;;;;5076352;28;20039;-78
2023/05/19 11:09:32;;;;;;;8.00;2.92;;;;;;;;;;5082936;28;20101;-79
2023/05/19 11:11:58;;;;;;;;;;;;;;;;;;5075224;28;20067;-79
2023/05/19 11:14:27;;;;;;;8.52;2.78;;;;;;;;;;5078782;28;20702;-79
2023/05/19 11:16:56;;;;;;;8.60;2.85;;;;;;;;;;5077562;28;20518;-78
2023/05/19 11:19:27;;;;;;;7.38;2.85;;;;;;;;;;5072410;28;20346;-79
2023/05/19 11:21:54;;;;;;;6.45;2.60;;;;;;;;;;5074260;28;20129;-78
2023/05/19 11:24:33;;;;;;;10.77;2.85;;;;;;;;;;5076996;28;20857;-78
2023/05/19 11:26:59;;;;;;;8.70;2.90;;;;;;;;;;5058083;28;20066;-78
2023/05/19 11:29:26;;;;;;;8.43;3.30;;;;;;;;;;5059462;28;20036;-77
2023/05/19 11:31:53;;;;;;;10.45;2.85;;;;;;;;;;5075798;28;20043;-79
2023/05/19 11:34:20;;;;;;;9.75;3.17;;;;;;;;;;5060292;28;20047;-78
2023/05/19 11:36:47;;;;;;;11.63;2.90;;;;;;;;;;5070789;28;20039;-78
2023/05/19 11:39:14;;;;;;;10.48;2.83;;;;;;;;;;5083007;28;20047;-79
2023/05/19 11:41:40;;;;;;;10.23;3.53;;;;;;;;;;5099526;28;20044;-78
2023/05/19 11:44:10;;;;;;;9.38;3.03;;;;;;;;;;5070727;28;20048;-78
2023/05/19 11:46:36;;;;;;;8.45;3.00;;;;;;;;;;5081963;28;20048;-78
2023/05/19 11:49:04;;;;;;;16.63;3.45;;;;;;;;;;5076773;28;20056;-78
2023/05/19 11:51:31;;;;;;;9.10;2.83;;;;;;;;;;5083441;28;20489;-78
2023/05/19 11:53:57;;;;;;;8.57;2.70;;;;;;;;;;5060301;28;20060;-78
2023/05/19 11:56:23;;;;;;;7.20;2.92;;;;;;;;;;5072603;28;20574;-78
2023/05/19 11:58:52;;;;;;;9.95;3.10;;;;;;;;;;5073842;28;20048;-79
2023/05/19 12:01:18;;;;;;;6.63;2.75;;;;;;;;;;5107682;27;21209;-78
2023/05/19 12:03:45;;;;;;;6.93;2.92;;;;;;;;;;5063719;28;20051;-78
2023/05/19 12:06:16;;;;;;;6.18;2.60;;;;;;;;;;5085507;28;20036;-78
2023/05/19 12:08:42;;;;;;;8.57;2.42;;;;;;;;;;5058299;28;20558;-78
2023/05/19 12:11:08;;;;;;;8.95;2.40;;;;;;;;;;5055626;28;20506;-78
2023/05/19 12:13:34;;;;;;;10.82;3.03;;;;;;;;;;5058087;28;20040;-78
2023/05/19 12:16:00;;;;;;;7.18;2.60;;;;;;;;;;5078061;28;20162;-79
2023/05/19 12:18:32;;;;;;;8.93;2.92;;;;;;;;;;5076409;28;20044;-79
2023/05/19 12:20:58;;;;;;;7.78;2.80;;;;;;;;;;5080995;28;20119;-79
2023/05/19 12:23:25;;;;;;;8.63;2.50;;;;;;;;;;5061095;28;20499;-78
2023/05/19 12:25:51;;;;;;;7.55;2.55;;;;;;;;;;5059139;28;20101;-80
2023/05/19 12:28:18;;;;;;;7.68;2.55;;;;;;;;;;5087135;27;20617;-78
2023/05/19 12:30:47;;;;;;;9.45;2.97;;;;;;;;;;5056478;28;20566;-76
2023/05/19 12:33:15;;;;;;;11.40;2.47;;;;;;;;;;5083890;28;20403;-77
2023/05/19 12:35:41;;;;;;;11.45;3.10;;;;;;;;;;5083981;28;20073;-77
2023/05/19 12:38:07;;;;;;;6.10;2.28;;;;;;;;;;5111342;27;20044;-78
2023/05/19 12:40:34;;;;;;;8.07;2.60;;;;;;;;;;5061615;28;20044;-78
2023/05/19 12:43:00;;;;;;;6.78;2.22;;;;;;;;;;5081902;28;20556;-77
2023/05/19 12:45:27;;;;;;;9.30;2.67;;;;;;;;;;5069273;28;20072;-77
2023/05/19 12:47:53;;;;;;;7.88;2.72;;;;;;;;;;5086646;27;20602;-79
2023/05/19 12:50:19;;;;;;;7.78;2.65;;;;;;;;;;5062514;28;20039;-79
2023/05/19 12:52:46;;;;;;;6.82;2.53;;;;;;;;;;5071485;28;20052;-78
2023/05/19 12:55:13;;;;;;;8.52;2.80;;;;;;;;;;5085238;27;20065;-77
2023/05/19 12:57:43;;;;;;;12.07;2.60;;;;;;;;;;5073449;28;20444;-78
2023/05/19 13:00:24;;;;;;;7.20;2.55;;;;;;;;;;5075424;28;20056;-77
2023/05/19 13:02:54;;;;;;;9.88;2.28;;;;;;;;;;5072974;28;20048;-78
2023/05/19 13:05:21;;;;;;;8.32;2.22;;;;;;;;;;5072820;28;20047;-78
2023/05/19 13:08:13;;;;;;;6.28;2.30;;;;;;;;;;5075870;28;20043;-78
2023/05/19 13:10:41;;;;;;;6.95;2.33;;;;;;;;;;5113684;27;20067;-79
2023/05/19 13:13:08;;;;;;;7.97;2.10;;;;;;;;;;5078350;28;20832;-78
2023/05/19 13:15:36;;;;;;;6.03;2.22;;;;;;;;;;5094927;28;20190;-77
2023/05/19 13:18:04;;;;;;;8.25;2.72;;;;;;;;;;5059680;28;20055;-76
2023/05/19 13:20:31;;;;;;;;;;;;;;;;;;5082115;28;20052;-77
2023/05/19 13:22:58;;;;;;;9.25;2.55;;;;;;;;;;5079234;28;20398;-78
2023/05/19 13:25:24;;;;;;;12.10;2.50;;;;;;;;;;5082621;28;20633;-77
2023/05/19 13:27:50;;;;;;;8.73;2.35;;;;;;;;;;5077294;28;20147;-77
2023/05/19 13:30:17;;;;;;;8.57;2.47;;;;;;;;;;5074820;28;20127;-77
2023/05/19 13:32:43;;;;;;;7.38;2.22;;;;;;;;;;5080360;28;20044;-78
2023/05/19 13:35:10;;;;;;;9.20;2.42;;;;;;;;;;5077765;28;20499;-77
2023/05/19 13:37:36;;;;;;;8.45;2.40;;;;;;;;;;5061195;28;20131;-77
2023/05/19 13:40:02;;;;;;;7.50;2.10;;;;;;;;;;5078577;28;20569;-77
2023/05/19 13:42:28;;;;;;;10.15;3.30;;;;;;;;;;5081127;28;20039;-77
2023/05/19 13:44:56;;;;;;;7.90;2.20;;;;;;;;;;5077166;28;20059;-77
2023/05/19 13:47:25;;;;;;;10.47;2.63;;;;;;;;;;5063206;28;20044;-77
2023/05/19 13:49:51;;;;;;;8.85;2.58;;;;;;;;;;5058824;28;20329;-79
2023/05/19 13:52:18;;;;;;;6.07;2.55;;;;;;;;;;5072035;28;20085;-78
2023/05/19 13:54:47;;;;;;;9.70;2.33;;;;;;;;;;5081115;28;20044;-78
2023/05/19 13:57:14;;;;;;;9.32;2.60;;;;;;;;;;5076826;28;20106;-78
2023/05/19 13:59:41;;;;;;;6.40;2.40;;;;;;;;;;5078984;28;20078;-78
2023/05/19 14:02:07;;;;;;;6.47;2.28;;;;;;;;;;5059832;28;20503;-79
2023/05/19 14:04:36;;;;;;;7.43;2.60;;;;;;;;;;5078778;28;20073;-78
2023/05/19 14:07:02;;;;;;;6.85;2.70;;;;;;;;;;5078765;28;20085;-79
2023/05/19 14:09:28;;;;;;;8.20;2.67;;;;;;;;;;5059756;28;20044;-78
2023/05/19 14:11:54;;;;;;;8.23;2.67;;;;;;;;;;5058009;28;20044;-80
2023/05/19 14:14:19;;;;;;;12.05;2.70;;;;;;;;;;5078205;28;20051;-78
2023/05/19 14:16:45;;;;;;;6.47;2.70;;;;;;;;;;5080895;28;20200;-79
2023/05/19 14:19:12;;;;;;;9.93;2.80;;;;;;;;;;5082399;28;20063;-78
2023/05/19 14:21:38;;;;;;;7.32;2.90;;;;;;;;;;5081737;28;20058;-75
2023/05/19 14:24:04;;;;;;;9.23;2.72;;;;;;;;;;5081920;28;20040;-78
2023/05/19 14:26:30;;;;;;;8.00;2.83;;;;;;;;;;5072342;28;20047;-77
2023/05/19 14:28:56;;;;;;;6.18;2.40;;;;;;;;;;5075747;28;20059;-77
2023/05/19 14:31:22;;;;;;;4.70;2.22;;;;;;;;;;5075334;28;20811;-76
2023/05/19 14:33:48;;;;;;;9.73;2.58;;;;;;;;;;5074801;28;20052;-77